Time;durP1;ratioP1;P1;durP2;ratioP2;P2;SDS_P1;SDS_P2;PMS_P1;PMS_P2;Temp;Humidity;BMP_temperature;BMP_pressure;BME280_temperature;BME280_humidity;BME280_pressure;Samples;Min_cycle;Max_cycle;Signal;HPM_P1;HPM_P2
2023/12/10 00:01:15;;;;;;;30.38;5.57;;;;;;;;;;5049866;28;20037;-75
2023/12/10 00:03:41;;;;;;;32.33;5.63;;;;;;;;;;5050141;28;20451;-75
2023/12/10 00:06:08;;;;;;;33.20;6.85;;;;;;;;;;5050184;28;20063;-75
2023/12/10 00:08:34;;;;;;;27.10;5.45;;;;;;;;;;5049923;28;20086;-75
2023/12/10 00:10:59;;;;;;;40.67;5.88;;;28.70;3.20;;;;;;5049696;28;20045;-75
2023/12/10 00:13:25;;;;;;;38.10;8.77;;;32.60;5.10;;;;;;5049420;28;20458;-75
2023/12/10 00:15:51;;;;;;;30.13;6.05;;;;;;;;;;5050172;28;20515;-74
2023/12/10 00:18:17;;;;;;;26.80;6.55;;;;;;;;;;5050212;28;20037;-75
2023/12/10 00:20:43;;;;;;;28.48;6.47;;;29.50;1.00;;;;;;5053382;28;20032;-75
2023/12/10 00:23:11;;;;;;;30.38;5.70;;;;;;;;;;5053368;28;20038;-74
2023/12/10 00:25:43;;;;;;;31.90;7.03;;;30.20;1.00;;;;;;5037640;28;20127;-75
2023/12/10 00:28:09;;;;;;;22.75;5.85;;;;;;;;;;5053912;28;20678;-75
2023/12/10 00:30:36;;;;;;;26.35;4.93;;;;;;;;;;5053333;28;20048;-74
2023/12/10 00:33:03;;;;;;;25.48;5.07;;;;;;;;;;5053394;28;20045;-75
2023/12/10 00:35:29;;;;;;;29.20;5.00;;;;;;;;;;5036561;28;20085;-76
2023/12/10 00:37:55;;;;;;;24.55;5.93;;;;;;;;;;5053399;28;20041;-77
2023/12/10 00:40:21;;;;;;;31.10;5.22;;;;;;;;;;5053139;28;20037;-76
2023/12/10 00:42:47;;;;;;;25.27;4.82;;;;;;;;;;5036738;28;20067;-73
2023/12/10 00:45:13;;;;;;;30.48;4.82;;;;;;;;;;5053216;28;20504;-74
2023/12/10 00:47:39;;;;;;;23.42;4.15;;;;;;;;;;5053430;28;20407;-74
2023/12/10 00:50:06;;;;;;;21.73;4.63;;;;;;;;;;5052857;28;20045;-75
2023/12/10 00:52:32;;;;;;;24.27;4.57;;;;;;;;;;5053123;28;20037;-74
2023/12/10 00:54:58;;;;;;;24.23;4.07;;;;;;;;;;5053304;28;20132;-75
2023/12/10 00:57:24;;;;;;;17.15;4.25;;;;;;;;;;5053105;28;20052;-75
2023/12/10 00:59:50;;;;;;;30.40;5.43;;;;;;;;;;5052765;28;20044;-74
2023/12/10 01:02:17;;;;;;;29.00;4.57;;;;;;;;;;5036151;28;20063;-76
2023/12/10 01:04:43;;;;;;;28.20;4.28;;;;;;;;;;5052725;28;20041;-77
2023/12/10 01:07:11;;;;;;;26.33;5.00;;;;;;;;;;5036109;28;20044;-76
2023/12/10 01:09:38;;;;;;;31.55;5.60;;;;;;;;;;5052457;28;20120;-76
2023/12/10 01:12:05;;;;;;;22.98;4.55;;;;;;;;;;5053010;28;20127;-75
2023/12/10 01:14:31;;;;;;;30.92;5.45;;;;;;;;;;5035553;28;20052;-76
2023/12/10 01:16:57;;;;;;;31.00;6.90;;;;;;;;;;5036049;28;20067;-75
2023/12/10 01:19:23;;;;;;;29.85;6.00;;;;;;;;;;5052302;28;20033;-75
2023/12/10 01:21:49;;;;;;;41.45;6.30;;;;;;;;;;5036067;28;20041;-75
2023/12/10 01:24:19;;;;;;;52.30;7.45;;;;;;;;;;5052147;28;20492;-75
2023/12/10 01:26:45;;;;;;;32.65;5.80;;;;;;;;;;5052456;28;20052;-75
2023/12/10 01:29:11;;;;;;;27.08;5.13;;;;;;;;;;5052352;28;20055;-75
2023/12/10 01:31:37;;;;;;;33.92;4.97;;;;;;;;;;5051722;28;20095;-75
2023/12/10 01:34:03;;;;;;;25.63;6.03;;;;;;;;;;5035494;28;20037;-75
2023/12/10 01:36:30;;;;;;;33.80;5.20;;;;;;;;;;5052119;28;20037;-75
2023/12/10 01:38:56;;;;;;;33.78;5.82;;;;;;;;;;5052000;28;20041;-75
2023/12/10 01:41:23;;;;;;;36.83;7.47;;;;;;;;;;5052212;28;20041;-75
2023/12/10 01:43:50;;;;;;;32.42;5.68;;;;;;;;;;5051919;28;20049;-75
2023/12/10 01:46:16;;;;;;;27.50;5.88;;;;;;;;;;5052100;28;20041;-75
2023/12/10 01:48:44;;;;;;;31.83;5.38;;;25.20;56.40;;;;;;5051910;28;20044;-76
2023/12/10 01:51:10;;;;;;;30.05;5.82;;;;;;;;;;5051764;28;20079;-75
2023/12/10 01:53:37;;;;;;;31.20;5.93;;;;;;;;;;5051752;28;20043;-75
2023/12/10 01:56:05;;;;;;;32.38;5.38;;;;;;;;;;5051687;28;20496;-75
2023/12/10 01:58:31;;;;;;;27.98;5.38;;;;;;;;;;5051778;28;20118;-75
2023/12/10 02:00:57;;;;;;;33.95;5.65;;;;;;;;;;5051608;28;20284;-75
2023/12/10 02:03:23;;;;;;;27.05;5.07;;;;;;;;;;5034923;28;20127;-75
2023/12/10 02:05:50;;;;;;;27.00;5.03;;;;;;;;;;5051608;28;20055;-75
2023/12/10 02:08:16;;;;;;;32.05;6.00;;;;;;;;;;5051580;28;20045;-75
2023/12/10 02:10:42;;;;;;;35.65;6.38;;;;;;;;;;5051148;28;20068;-75
2023/12/10 02:13:08;;;;;;;31.80;5.82;;;;;;;;;;5051173;28;20045;-74
2023/12/10 02:15:34;;;;;;;33.65;5.22;;;;;;;;;;5051388;28;20045;-75
2023/12/10 02:18:00;;;;;;;31.80;8.20;;;;;;;;;;5051271;28;20041;-75
2023/12/10 02:20:26;;;;;;;34.30;5.35;;;;;;;;;;5051422;28;20401;-74
2023/12/10 02:23:08;;;;;;;36.28;6.78;;;;;;;;;;5034724;28;20033;-76
2023/12/10 02:25:35;;;;;;;30.95;6.30;;;24.50;75.20;;;;;;5052278;28;20044;-76
2023/12/10 02:28:02;;;;;;;29.75;4.97;;;;;;;;;;5039315;28;20045;-75
2023/12/10 02:30:28;;;;;;;32.55;6.00;;;;;;;;;;5055499;28;20044;-75
2023/12/10 02:32:55;;;;;;;35.40;5.38;;;;;;;;;;5053724;28;20108;-75
2023/12/10 02:35:21;;;;;;;32.58;5.57;;;;;;;;;;5053484;28;20045;-75
2023/12/10 02:37:47;;;;;;;27.52;5.53;;;;;;;;;;5054229;28;20041;-75
2023/12/10 02:40:14;;;;;;;25.08;5.63;;;;;;;;;;5052349;28;20079;-75
2023/12/10 02:42:40;;;;;;;27.15;6.38;;;;;;;;;;5050599;28;20029;-75
2023/12/10 02:45:06;;;;;;;20.85;5.30;;;21.90;76.70;;;;;;5050821;28;20037;-75
2023/12/10 02:47:32;;;;;;;33.13;6.47;;;;;;;;;;5051883;28;20045;-75
2023/12/10 02:49:58;;;;;;;25.20;5.32;;;;;;;;;;5051907;28;20044;-75
2023/12/10 02:52:24;;;;;;;26.58;4.60;;;;;;;;;;5035881;28;20522;-74
2023/12/10 02:54:50;;;;;;;31.63;5.93;;;;;;;;;;5034674;28;20032;-75
2023/12/10 02:57:16;;;;;;;22.98;4.72;;;;;;;;;;5034001;28;20045;-74
2023/12/10 02:59:43;;;;;;;25.05;4.80;;;;;;;;;;5050360;28;20037;-75
2023/12/10 03:02:09;;;;;;;32.72;5.07;;;;;;;;;;5050823;28;20413;-75
2023/12/10 03:04:35;;;;;;;29.75;5.63;;;;;;;;;;5050721;28;20500;-74
2023/12/10 03:07:01;;;;;;;30.52;6.40;;;;;;;;;;5050709;28;20037;-75
2023/12/10 03:09:27;;;;;;;21.50;4.25;;;;;;;;;;5050453;28;20447;-75
2023/12/10 03:11:53;;;;;;;23.45;6.90;;;;;;;;;;5033868;28;20068;-75
2023/12/10 03:14:19;;;;;;;24.27;4.32;;;;;;;;;;5049949;28;20037;-75
2023/12/10 03:16:45;;;;;;;17.75;4.07;;;;;;;;;;5033921;28;20094;-75
2023/12/10 03:19:11;;;;;;;17.77;4.30;;;;;;;;;;5050421;28;20369;-75
2023/12/10 03:21:37;;;;;;;23.23;4.00;;;;;;;;;;5033811;28;20099;-74
2023/12/10 03:24:03;;;;;;;23.60;4.20;;;20.90;84.10;;;;;;5034003;28;20033;-75
2023/12/10 03:26:29;;;;;;;24.10;3.55;;;;;;;;;;5050212;28;20115;-75
2023/12/10 03:28:55;;;;;;;21.23;4.38;;;;;;;;;;5050194;28;20041;-76
2023/12/10 03:31:21;;;;;;;18.23;3.90;;;;;;;;;;5049979;28;20044;-75
2023/12/10 03:33:50;;;;;;;16.92;3.20;;;;;;;;;;5050002;28;20451;-74
2023/12/10 03:36:16;;;;;;;17.17;3.50;;;;;;;;;;5050182;28;20123;-75
2023/12/10 03:38:42;;;;;;;23.55;4.47;;;;;;;;;;5050143;28;20045;-75
2023/12/10 03:41:08;;;;;;;23.08;3.40;;;;;;;;;;5034013;28;20041;-74
2023/12/10 03:43:34;;;;;;;24.35;3.47;;;;;;;;;;5050841;28;20063;-75
2023/12/10 03:46:00;;;;;;;18.73;3.40;;;;;;;;;;5050179;28;20496;-76
2023/12/10 03:48:26;;;;;;;19.30;3.97;;;;;;;;;;5033622;28;20045;-76
2023/12/10 03:50:52;;;;;;;16.27;3.40;;;;;;;;;;5049859;28;20052;-75
2023/12/10 03:53:18;;;;;;;26.88;5.10;;;;;;;;;;5050402;28;20045;-75
2023/12/10 03:55:44;;;;;;;27.05;5.03;;;;;;;;;;5054008;28;20040;-75
2023/12/10 03:58:10;;;;;;;22.70;4.38;;;;;;;;;;5053906;28;20055;-75
2023/12/10 04:00:35;;;;;;;21.35;4.25;;;29.40;93.80;;;;;;5037217;28;20124;-74
2023/12/10 04:03:01;;;;;;;24.70;4.82;;;;;;;;;;5037681;28;20124;-75
2023/12/10 04:05:28;;;;;;;30.35;5.13;;;;;;;;;;5054124;28;20044;-75
2023/12/10 04:07:54;;;;;;;31.88;5.22;;;;;;;;;;5054153;28;20076;-75
2023/12/10 04:10:20;;;;;;;26.63;5.50;;;;;;;;;;5037034;28;20128;-75
2023/12/10 04:12:46;;;;;;;31.38;5.05;;;;;;;;;;5054010;28;20041;-75
2023/12/10 04:15:12;;;;;;;27.95;4.60;;;;;;;;;;5037078;28;20057;-75
2023/12/10 04:17:38;;;;;;;38.47;5.53;;;;;;;;;;5053604;28;20561;-75
2023/12/10 04:20:05;;;;;;;35.40;5.97;;;;;;;;;;5036884;28;20077;-75
2023/12/10 04:22:31;;;;;;;34.25;5.82;;;;;;;;;;5053733;28;20076;-75
2023/12/10 04:24:56;;;;;;;34.25;6.10;;;23.60;94.00;;;;;;5053348;28;20040;-75
2023/12/10 04:27:23;;;;;;;34.70;5.03;;;;;;;;;;5053510;28;20033;-75
2023/12/10 04:29:49;;;;;;;40.42;6.15;;;;;;;;;;5053516;28;20450;-74
2023/12/10 04:32:15;;;;;;;41.50;6.35;;;;;;;;;;5053536;28;20052;-75
2023/12/10 04:34:41;;;;;;;33.40;5.20;;;;;;;;;;5036701;28;20045;-75
2023/12/10 04:37:07;;;;;;;36.95;5.70;;;;;;;;;;5053193;28;20052;-75
2023/12/10 04:39:33;;;;;;;27.30;5.30;;;;;;;;;;5053057;28;20033;-75
2023/12/10 04:41:59;;;;;;;27.55;6.13;;;;;;;;;;5053296;28;20045;-75
2023/12/10 04:44:25;;;;;;;32.03;5.53;;;;;;;;;;5036459;28;20131;-75
2023/12/10 04:46:51;;;;;;;32.50;6.93;;;;;;;;;;5053300;28;20122;-75
2023/12/10 04:49:17;;;;;;;35.65;6.15;;;;;;;;;;5036234;28;20044;-75
2023/12/10 04:51:43;;;;;;;39.60;6.78;;;;;;;;;;5053130;28;20048;-74
2023/12/10 04:54:09;;;;;;;49.83;7.40;;;;;;;;;;5052914;28;20098;-74
2023/12/10 04:56:35;;;;;;;43.05;7.95;;;;;;;;;;5053207;28;20466;-75
2023/12/10 04:59:01;;;;;;;39.25;5.95;;;22.40;94.20;;;;;;5052717;28;20106;-75
2023/12/10 05:01:27;;;;;;;40.90;6.90;;;;;;;;;;5052867;28;20072;-75
2023/12/10 05:03:53;;;;;;;29.42;5.78;;;;;;;;;;5036222;28;20040;-75
2023/12/10 05:06:19;;;;;;;34.33;5.95;;;;;;;;;;5051866;28;20479;-74
2023/12/10 05:08:45;;;;;;;34.47;5.25;;;;;;;;;;5036278;28;20128;-74
2023/12/10 05:11:11;;;;;;;25.55;5.15;;;;;;;;;;5052546;28;20136;-75
2023/12/10 05:13:37;;;;;;;22.23;5.60;;;;;;;;;;5052605;28;20127;-74
2023/12/10 05:16:03;;;;;;;23.70;4.75;;;;;;;;;;5036002;28;20087;-74
2023/12/10 05:18:30;;;;;;;28.13;4.57;;;;;;;;;;5052624;28;20451;-75
2023/12/10 05:20:56;;;;;;;26.40;4.80;;;;;;;;;;5035703;28;20037;-75
2023/12/10 05:23:22;;;;;;;33.25;5.95;;;;;;;;;;5052522;28;20143;-75
2023/12/10 05:25:48;;;;;;;21.10;3.65;;;;;;;;;;5052452;28;20033;-75
2023/12/10 05:28:14;;;;;;;24.73;4.82;;;;;;;;;;5052377;28;20048;-75
2023/12/10 05:30:39;;;;;;;27.15;4.35;;;22.70;95.30;;;;;;5052503;28;20179;-75
2023/12/10 05:33:05;;;;;;;25.00;4.32;;;21.80;95.10;;;;;;5035602;28;20124;-75
2023/12/10 05:35:32;;;;;;;18.80;5.60;;;23.30;95.00;;;;;;5052155;28;20036;-75
2023/12/10 05:37:58;;;;;;;22.20;4.22;;;;;;;;;;5051985;28;20505;-75
2023/12/10 05:40:25;;;;;;;20.20;3.63;;;19.90;94.80;;;;;;5051906;28;20041;-75
2023/12/10 05:42:52;;;;;;;19.65;3.80;;;19.50;93.70;;;;;;5052125;28;20532;-75
2023/12/10 05:45:18;;;;;;;26.95;5.18;;;;;;;;;;5051955;28;20037;-75
2023/12/10 05:47:44;;;;;;;12.82;2.65;;;;;;;;;;5051936;28;20048;-76
2023/12/10 05:50:10;;;;;;;15.60;2.67;;;;;;;;;;5051716;28;20041;-75
2023/12/10 05:52:36;;;;;;;15.82;2.75;;;;;;;;;;5051873;28;20070;-75
2023/12/10 05:55:02;;;;;;;10.82;2.30;;;;;;;;;;5051606;28;20037;-75
2023/12/10 05:57:28;;;;;;;12.45;1.70;;;;;;;;;;5035093;28;20045;-75
2023/12/10 05:59:55;;;;;;;9.15;2.70;;;;;;;;;;5035054;28;20581;-75
2023/12/10 06:02:24;;;;;;;9.30;2.72;;;;;;;;;;5035145;28;20489;-75
2023/12/10 06:04:50;;;;;;;11.40;1.98;;;;;;;;;;5051595;28;20076;-75
2023/12/10 06:07:17;;;;;;;5.82;1.42;;;;;;;;;;5052737;28;20044;-75
2023/12/10 06:09:43;;;;;;;8.88;1.42;;;;;;;;;;5051424;28;20053;-75
2023/12/10 06:12:09;;;;;;;5.57;1.35;;;;;;;;;;5051582;28;20041;-75
2023/12/10 06:14:35;;;;;;;10.60;2.85;;;;;;;;;;5051687;28;20401;-75
2023/12/10 06:17:01;;;;;;;13.88;1.95;;;;;;;;;;5051257;28;20044;-75
2023/12/10 06:19:27;;;;;;;10.85;2.63;;;;;;;;;;5034570;28;20041;-75
2023/12/10 06:21:53;;;;;;;8.25;1.83;;;19.80;95.20;;;;;;5051666;28;20055;-75
2023/12/10 06:24:19;;;;;;;7.82;1.83;;;;;;;;;;5051385;28;20127;-76
2023/12/10 06:26:45;;;;;;;6.57;1.70;;;;;;;;;;5051510;28;20072;-75
2023/12/10 06:29:11;;;;;;;10.38;1.95;;;;;;;;;;5050965;28;20041;-75
2023/12/10 06:31:37;;;;;;;6.30;1.20;;;;;;;;;;5051396;28;20055;-75
2023/12/10 06:34:03;;;;;;;9.63;1.80;;;;;;;;;;5034523;28;20045;-75
2023/12/10 06:36:29;;;;;;;5.25;1.30;;;;;;;;;;5051035;28;20045;-76
2023/12/10 06:38:55;;;;;;;14.00;2.78;;;19.20;98.10;;;;;;5034526;28;20044;-76
2023/12/10 06:41:21;;;;;;;7.97;2.10;;;;;;;;;;5034381;28;20048;-75
2023/12/10 06:43:47;;;;;;;11.90;2.15;;;;;;;;;;5050927;28;20124;-75
2023/12/10 06:46:17;;;;;;;8.32;1.80;;;;;;;;;;5051343;28;20041;-75
2023/12/10 06:48:43;;;;;;;8.02;1.50;;;;;;;;;;5034413;28;20045;-76
2023/12/10 06:51:09;;;;;;;5.32;1.42;;;;;;;;;;5033942;28;20124;-76
2023/12/10 06:53:35;;;;;;;9.40;2.20;;;;;;;;;;5050703;28;20152;-76
2023/12/10 06:56:04;;;;;;;20.98;2.45;;;;;;;;;;5050768;28;20131;-76
2023/12/10 06:58:30;;;;;;;17.05;2.50;;;;;;;;;;5034015;28;20052;-76
2023/12/10 07:00:56;;;;;;;13.68;1.90;;;;;;;;;;5050521;28;20508;-76
2023/12/10 07:03:22;;;;;;;15.48;2.63;;;;;;;;;;5050442;28;20036;-75
2023/12/10 07:05:49;;;;;;;12.85;2.25;;;;;;;;;;5050611;28;20352;-76
2023/12/10 07:08:15;;;;;;;18.27;2.92;;;;;;;;;;5034186;28;20437;-76
2023/12/10 07:10:41;;;;;;;19.77;2.72;;;;;;;;;;5033887;28;20290;-76
2023/12/10 07:13:07;;;;;;;23.92;4.22;;;;;;;;;;5033809;28;20048;-76
2023/12/10 07:15:33;;;;;;;20.77;3.83;;;;;;;;;;5050609;28;20408;-76
2023/12/10 07:17:59;;;;;;;30.55;4.95;;;;;;;;;;5050295;28;20401;-77
2023/12/10 07:20:25;;;;;;;29.92;6.15;;;19.20;99.90;;;;;;5033482;28;20047;-77
2023/12/10 07:22:50;;;;;;;27.08;4.50;;;18.60;99.90;;;;;;5050384;28;20033;-75
2023/12/10 07:25:18;;;;;;;33.78;4.72;;;;;;;;;;5033755;28;20037;-76
2023/12/10 07:27:45;;;;;;;29.98;4.63;;;;;;;;;;5033495;28;20045;-76
2023/12/10 07:30:11;;;;;;;28.63;5.38;;;20.20;99.90;;;;;;5050080;28;20041;-77
2023/12/10 07:32:37;;;;;;;29.50;5.88;;;;;;;;;;5050243;28;20037;-76
2023/12/10 07:35:03;;;;;;;24.83;4.25;;;;;;;;;;5050177;28;20098;-77
2023/12/10 07:37:29;;;;;;;27.83;5.53;;;18.90;99.90;;;;;;5050012;28;20052;-76
2023/12/10 07:39:55;;;;;;;27.40;5.03;;;;;;;;;;5050230;28;20040;-77
2023/12/10 07:42:21;;;;;;;28.92;4.72;;;;;;;;;;5034508;28;20082;-77
2023/12/10 07:44:47;;;;;;;30.20;5.25;;;;;;;;;;5051101;28;20037;-76
2023/12/10 07:47:13;;;;;;;25.63;4.88;;;;;;;;;;5050480;28;20448;-76
2023/12/10 07:49:39;;;;;;;34.25;4.50;;;;;;;;;;5050090;28;20480;-76
2023/12/10 07:52:06;;;;;;;32.47;5.13;;;17.80;98.70;;;;;;5033757;28;20045;-76
2023/12/10 07:54:32;;;;;;;33.70;4.15;;;;;;;;;;5033732;28;20454;-76
2023/12/10 07:56:59;;;;;;;28.88;5.18;;;;;;;;;;5050187;28;20037;-76
2023/12/10 07:59:25;;;;;;;31.20;5.00;;;;;;;;;;5033241;28;20489;-75
2023/12/10 08:01:51;;;;;;;27.20;4.50;;;;;;;;;;5033577;28;20493;-77
2023/12/10 08:04:17;;;;;;;26.55;4.47;;;;;;;;;;5049981;28;20124;-76
2023/12/10 08:06:43;;;;;;;29.58;5.35;;;;;;;;;;5050144;28;20120;-76
2023/12/10 08:09:09;;;;;;;32.78;5.38;;;;;;;;;;5033309;28;20133;-76
2023/12/10 08:11:36;;;;;;;37.90;6.05;;;;;;;;;;5033906;28;20568;-76
2023/12/10 08:14:02;;;;;;;32.67;7.03;;;;;;;;;;5034039;28;20045;-77
2023/12/10 08:16:28;;;;;;;28.77;5.00;;;;;;;;;;5049901;28;20070;-76
2023/12/10 08:18:54;;;;;;;28.05;4.25;;;;;;;;;;5033174;28;20037;-76
2023/12/10 08:21:20;;;;;;;32.03;5.13;;;;;;;;;;5033165;28;20574;-76
2023/12/10 08:23:47;;;;;;;34.92;5.40;;;;;;;;;;5050188;28;20040;-77
2023/12/10 08:26:13;;;;;;;30.15;7.07;;;;;;;;;;5033239;28;20095;-77
2023/12/10 08:28:39;;;;;;;33.35;4.72;;;;;;;;;;5033200;28;20462;-77
2023/12/10 08:31:05;;;;;;;36.78;4.72;;;;;;;;;;5049758;28;20041;-77
2023/12/10 08:33:31;;;;;;;24.25;4.78;;;;;;;;;;5049818;28;20584;-77
2023/12/10 08:35:57;;;;;;;32.00;5.20;;;;;;;;;;5049692;28;20052;-75
2023/12/10 08:38:23;;;;;;;24.70;4.03;;;;;;;;;;5033102;28;20047;-74
2023/12/10 08:40:49;;;;;;;33.20;5.57;;;;;;;;;;5050971;28;20465;-75
2023/12/10 08:43:17;;;;;;;28.63;4.32;;;;;;;;;;5053369;28;20037;-75
2023/12/10 08:45:43;;;;;;;21.98;4.45;;;;;;;;;;5036525;28;20040;-74
2023/12/10 08:48:08;;;;;;;26.35;4.68;;;19.20;57.80;;;;;;5036421;28;20075;-74
2023/12/10 08:50:34;;;;;;;25.02;4.18;;;19.50;58.10;;;;;;5036338;28;20037;-75
2023/12/10 08:53:00;;;;;;;21.48;4.82;;;;;;;;;;5052979;28;20044;-74
2023/12/10 08:55:26;;;;;;;26.10;4.07;;;;;;;;;;5053193;28;20099;-75
2023/12/10 08:57:52;;;;;;;23.88;5.25;;;;;;;;;;5053099;28;20094;-75
2023/12/10 09:00:18;;;;;;;31.20;4.70;;;;;;;;;;5052679;28;20091;-75
2023/12/10 09:02:44;;;;;;;22.85;4.28;;;;;;;;;;5052791;28;20033;-75
2023/12/10 09:05:10;;;;;;;25.33;3.95;;;;;;;;;;5052677;28;20124;-75
2023/12/10 09:07:36;;;;;;;25.08;5.30;;;;;;;;;;5052873;28;20079;-75
2023/12/10 09:10:02;;;;;;;23.08;4.97;;;;;;;;;;5052503;28;20076;-74
2023/12/10 09:12:28;;;;;;;26.05;5.15;;;;;;;;;;5052621;28;20131;-77
2023/12/10 09:14:55;;;;;;;22.13;4.57;;;;;;;;;;5052490;28;20043;-76
2023/12/10 09:17:21;;;;;;;26.48;4.53;;;19.70;61.40;;;;;;5052741;28;20048;-76
2023/12/10 09:19:48;;;;;;;18.77;3.95;;;;;;;;;;5052441;28;20095;-74
2023/12/10 09:22:14;;;;;;;26.48;4.93;;;;;;;;;;5052497;28;20123;-74
2023/12/10 09:24:40;;;;;;;23.80;5.65;;;;;;;;;;5069371;22;20499;-72
2023/12/10 09:27:06;;;;;;;33.58;5.78;;;19.30;70.80;;;;;;5072598;28;20418;-71
2023/12/10 09:29:38;;;;;;;33.38;6.60;;;19.50;72.30;;;;;;5072084;28;20032;-72
2023/12/10 09:32:05;;;;;;;22.17;4.28;;;20.20;67.10;;;;;;5072706;28;20119;-72
2023/12/10 09:34:32;;;;;;;25.08;4.57;;;;;;;;;;5072144;28;20036;-72
2023/12/10 09:36:58;;;;;;;23.27;4.32;;;;;;;;;;5072289;28;20037;-72
2023/12/10 09:39:24;;;;;;;27.52;4.65;;;19.70;63.90;;;;;;5072132;28;20500;-72
2023/12/10 09:41:50;;;;;;;15.05;3.50;;;19.30;60.50;;;;;;5072350;28;20072;-73
2023/12/10 09:44:16;;;;;;;25.33;5.07;;;;;;;;;;5071856;28;20047;-73
2023/12/10 09:46:42;;;;;;;24.05;3.28;;;;;;;;;;5071969;28;20442;-73
2023/12/10 09:49:08;;;;;;;21.73;4.25;;;;;;;;;;5055189;28;20044;-73
2023/12/10 09:51:34;;;;;;;38.13;4.82;;;;;;;;;;5071591;28;20124;-72
2023/12/10 09:54:00;;;;;;;27.75;4.60;;;;;;;;;;5055120;28;20488;-72
2023/12/10 09:56:26;;;;;;;27.83;5.07;;;;;;;;;;5055167;28;20044;-72
2023/12/10 09:58:52;;;;;;;39.25;5.32;;;;;;;;;;5071624;28;20052;-73
2023/12/10 10:01:18;;;;;;;33.28;5.30;;;19.20;76.70;;;;;;5071708;28;20388;-72
2023/12/10 10:03:43;;;;;;;36.42;6.32;;;19.30;78.90;;;;;;5071591;28;20038;-72
2023/12/10 10:06:09;;;;;;;37.55;6.78;;;18.80;79.50;;;;;;5071732;28;20114;-72
2023/12/10 10:08:35;;;;;;;42.63;7.28;;;;;;;;;;5071549;28;20045;-73
2023/12/10 10:11:02;;;;;;;28.27;5.60;;;;;;;;;;5071285;28;20263;-72
2023/12/10 10:13:28;;;;;;;34.38;6.43;;;;;;;;;;5054350;28;20392;-73
2023/12/10 10:15:54;;;;;;;41.47;8.07;;;19.10;78.90;;;;;;5071296;28;20040;-73
2023/12/10 10:18:20;;;;;;;29.85;6.13;;;19.10;71.50;;;;;;5072610;28;20044;-73
2023/12/10 10:20:47;;;;;;;34.67;7.03;;;18.80;72.50;;;;;;5054363;28;20037;-73
2023/12/10 10:23:14;;;;;;;34.45;6.03;;;19.00;66.60;;;;;;5072581;28;20507;-72
2023/12/10 10:25:40;;;;;;;32.42;5.35;;;18.80;67.20;;;;;;5071243;28;20029;-72
2023/12/10 10:28:09;;;;;;;40.08;6.93;;;18.90;61.60;;;;;;5071222;28;20040;-72
2023/12/10 10:30:35;;;;;;;41.60;7.13;;;;;;;;;;5070850;28;20080;-73
2023/12/10 10:33:02;;;;;;;46.75;7.60;;;;;;;;;;5071003;28;20049;-73
2023/12/10 10:35:28;;;;;;;39.72;6.70;;;;;;;;;;5070919;28;20048;-72
2023/12/10 10:37:55;;;;;;;40.08;6.35;;;;;;;;;;5070915;28;20044;-72
2023/12/10 10:40:20;;;;;;;51.80;8.05;;;20.60;54.80;;;;;;5070676;28;20036;-72
2023/12/10 10:42:46;;;;;;;37.30;6.63;;;;;;;;;;5070875;28;20458;-73
2023/12/10 10:45:12;;;;;;;36.47;6.57;;;;;;;;;;5070732;28;20039;-72
2023/12/10 10:47:39;;;;;;;39.90;7.50;;;;;;;;;;5070715;28;20547;-73
2023/12/10 10:50:06;;;;;;;42.50;7.68;;;;;;;;;;5070605;28;20076;-73
2023/12/10 10:52:34;;;;;;;44.05;7.13;;;20.40;49.70;;;;;;5071224;28;20150;-73
2023/12/10 10:55:00;;;;;;;22.85;6.07;;;19.40;46.20;;;;;;5071207;28;20384;-72
2023/12/10 10:57:29;;;;;;;39.63;7.25;;;19.40;51.20;;;;;;5071243;28;20040;-73
2023/12/10 10:59:55;;;;;;;37.63;6.28;;;;;;;;;;5071044;28;20049;-72
2023/12/10 11:02:21;;;;;;;35.50;5.50;;;;;;;;;;5070956;28;20044;-72
2023/12/10 11:04:49;;;;;;;36.35;6.72;;;;;;;;;;5053350;28;20036;-72
2023/12/10 11:07:16;;;;;;;35.05;7.05;;;;;;;;;;5070686;28;20044;-73
2023/12/10 11:09:59;;;;;;;29.17;5.75;;;19.60;51.30;;;;;;5070826;28;20045;-73
2023/12/10 11:12:43;;;;;;;38.63;6.30;;;19.50;47.50;;;;;;5071500;28;20064;-73
2023/12/10 11:15:15;;;;;;;45.13;7.57;;;19.50;48.30;;;;;;5070611;28;20117;-73
2023/12/10 11:18:02;;;;;;;38.30;6.20;;;19.80;48.80;;;;;;5070596;28;20068;-72
2023/12/10 11:20:34;;;;;;;38.53;6.78;;;19.20;46.60;;;;;;5070550;28;20468;-73
2023/12/10 11:23:04;;;;;;;41.00;6.70;;;;;;;;;;5070522;28;20032;-72
2023/12/10 11:25:31;;;;;;;41.95;6.32;;;;;;;;;;5053709;28;20037;-73
2023/12/10 11:27:57;;;;;;;35.53;6.82;;;;;;;;;;5070696;28;20117;-73
2023/12/10 11:30:24;;;;;;;42.80;8.98;;;;;;;;;;5070340;28;20449;-72
2023/12/10 11:32:50;;;;;;;41.47;7.10;;;22.40;42.70;;;;;;5070415;28;20075;-72
2023/12/10 11:35:15;;;;;;;39.85;7.85;;;20.40;43.00;;;;;;5070215;28;20067;-73
2023/12/10 11:37:43;;;;;;;33.85;7.28;;;;;;;;;;5070152;28;20159;-72
2023/12/10 11:40:09;;;;;;;43.75;8.32;;;;;;;;;;5070178;28;20480;-72
2023/12/10 11:42:35;;;;;;;32.30;6.60;;;;;;;;;;5070226;28;20037;-72
2023/12/10 11:45:02;;;;;;;40.47;6.90;;;19.00;29.60;;;;;;5071470;28;20036;-73
2023/12/10 11:47:28;;;;;;;32.08;5.65;;;18.70;30.60;;;;;;5053864;28;20407;-73
2023/12/10 11:49:55;;;;;;;39.20;8.80;;;18.90;26.00;;;;;;5069885;28;20044;-72
2023/12/10 11:52:21;;;;;;;33.53;6.72;;;;;;;;;;5070126;28;20041;-73
2023/12/10 11:54:47;;;;;;;35.42;7.05;;;;;;;;;;5053294;28;20093;-73
2023/12/10 11:57:14;;;;;;;37.08;5.82;;;;;;;;;;5070023;28;20048;-73
2023/12/10 11:59:40;;;;;;;30.27;6.47;;;;;;;;;;5069839;28;20041;-72
2023/12/10 12:02:06;;;;;;;32.25;6.13;;;19.00;25.30;;;;;;5053526;28;20047;-73
2023/12/10 12:04:33;;;;;;;41.72;6.80;;;19.00;21.70;;;;;;5069893;28;20049;-72
2023/12/10 12:06:59;;;;;;;31.58;5.38;;;;;;;;;;5069898;28;20036;-72
2023/12/10 12:09:25;;;;;;;39.50;6.93;;;;;;;;;;5069765;28;20048;-73
2023/12/10 12:11:51;;;;;;;31.27;5.25;;;19.00;18.40;;;;;;5069899;28;20098;-73
2023/12/10 12:14:18;;;;;;;25.42;5.15;;;19.20;21.00;;;;;;5070577;28;20044;-72
2023/12/10 12:16:46;;;;;;;37.75;5.80;;;19.00;16.40;;;;;;5073765;28;20041;-72
2023/12/10 12:19:26;;;;;;;28.00;5.03;;;18.80;14.90;;;;;;5090311;28;20453;-73
2023/12/10 12:21:52;;;;;;;28.10;5.85;;;;;;;;;;5073693;28;20082;-72
2023/12/10 12:24:18;;;;;;;26.92;4.90;;;18.80;17.40;;;;;;5073569;28;20037;-73
2023/12/10 12:26:44;;;;;;;30.13;5.68;;;18.80;16.40;;;;;;5073711;28;20037;-72
2023/12/10 12:29:10;;;;;;;28.75;7.22;;;18.60;15.40;;;;;;5073473;28;20036;-73
2023/12/10 12:31:38;;;;;;;31.27;6.20;;;;;;;;;;5073485;28;20174;-72
2023/12/10 12:34:04;;;;;;;26.58;6.07;;;;;;;;;;5074541;28;20045;-72
2023/12/10 12:36:29;;;;;;;29.42;4.78;;;18.50;14.80;;;;;;5056960;28;20059;-73
2023/12/10 12:38:55;;;;;;;30.63;5.45;;;;;;;;;;5073345;28;20496;-72
2023/12/10 12:41:21;;;;;;;31.65;5.53;;;18.50;14.50;;;;;;5073186;28;20312;-72
2023/12/10 12:43:47;;;;;;;22.70;5.78;;;18.50;16.00;;;;;;5073066;28;20573;-73
2023/12/10 12:46:14;;;;;;;16.08;4.00;;;18.80;14.70;;;;;;5073179;28;20033;-72
2023/12/10 12:48:40;;;;;;;25.10;4.85;;;;;;;;;;5056317;28;20545;-71
2023/12/10 12:51:06;;;;;;;23.05;4.65;;;;;;;;;;5072907;28;20124;-72
2023/12/10 12:53:32;;;;;;;22.52;4.55;;;;;;;;;;5074238;28;20040;-73
2023/12/10 12:55:58;;;;;;;25.00;4.13;;;;;;;;;;5073041;28;20047;-72
2023/12/10 12:58:24;;;;;;;26.00;4.30;;;;;;;;;;5072927;28;20132;-73
2023/12/10 13:00:50;;;;;;;26.38;5.55;;;;;;;;;;5072759;28;20036;-73
2023/12/10 13:03:16;;;;;;;25.77;4.47;;;;;;;;;;5056211;28;20033;-72
2023/12/10 13:05:42;;;;;;;25.60;4.13;;;19.00;8.60;;;;;;5072861;28;20048;-71
2023/12/10 13:08:09;;;;;;;26.70;4.13;;;18.60;8.90;;;;;;5073132;28;20396;-72
2023/12/10 13:10:34;;;;;;;23.67;4.68;;;18.90;10.00;;;;;;5073084;28;20590;-72
2023/12/10 13:13:00;;;;;;;22.55;5.28;;;;;;;;;;5072713;28;20044;-72
2023/12/10 13:15:27;;;;;;;28.45;5.38;;;;;;;;;;5072796;28;20523;-73
2023/12/10 13:17:52;;;;;;;21.52;4.30;;;18.80;9.10;;;;;;5072382;28;20101;-71
2023/12/10 13:20:18;;;;;;;30.05;4.78;;;18.90;8.90;;;;;;5072627;28;20520;-71
2023/12/10 13:22:43;;;;;;;22.98;4.38;;;18.70;7.30;;;;;;5072857;28;20119;-72
2023/12/10 13:25:10;;;;;;;19.55;4.35;;;;;;;;;;5072429;28;20036;-72
2023/12/10 13:27:36;;;;;;;31.58;4.28;;;;;;;;;;5071937;28;20411;-72
2023/12/10 13:30:02;;;;;;;37.20;5.43;;;;;;;;;;5072330;28;20076;-72
2023/12/10 13:32:28;;;;;;;32.65;5.47;;;;;;;;;;5072232;28;20050;-72
2023/12/10 13:34:55;;;;;;;28.73;4.55;;;;;;;;;;5072133;28;20526;-72
2023/12/10 13:37:21;;;;;;;22.65;4.32;;;18.40;8.40;;;;;;5055694;28;20041;-72
2023/12/10 13:39:47;;;;;;;13.45;3.10;;;18.40;8.00;;;;;;5055555;28;20545;-72
2023/12/10 13:42:13;;;;;;;18.02;3.65;;;;;;;;;;5072205;28;20041;-72
2023/12/10 13:44:39;;;;;;;14.32;4.10;;;;;;;;;;5071989;28;20055;-72
2023/12/10 13:47:05;;;;;;;21.10;3.60;;;;;;;;;;5071967;28;20045;-72
2023/12/10 13:49:31;;;;;;;23.77;4.22;;;;;;;;;;5072146;28;20114;-71
2023/12/10 13:51:57;;;;;;;14.85;3.50;;;;;;;;;;5072202;28;20087;-72
2023/12/10 13:54:23;;;;;;;20.17;3.83;;;;;;;;;;5072037;28;20063;-72
2023/12/10 13:56:50;;;;;;;14.50;3.25;;;;;;;;;;5071803;28;20047;-73
2023/12/10 13:59:16;;;;;;;15.50;3.50;;;18.20;5.00;;;;;;5071493;28;20052;-72